createdAt,value
2024-02-21T00:01:52.117Z,20.30
2024-02-21T00:04:40.088Z,26.10
2024-02-21T00:07:27.085Z,22.70
2024-02-21T00:10:14.379Z,22.60
2024-02-21T00:15:47.877Z,24.10
2024-02-21T00:21:21.983Z,29.90
2024-02-21T00:26:57.575Z,26.90
2024-02-21T00:32:33.450Z,26.50
2024-02-21T00:35:20.677Z,28.30
2024-02-21T00:38:07.867Z,25.30
2024-02-21T00:40:55.527Z,25.40
2024-02-21T00:43:43.596Z,17.50
2024-02-21T00:46:30.601Z,16.60
2024-02-21T00:49:17.612Z,20.20
2024-02-21T00:52:04.780Z,28.60
2024-02-21T00:54:54.570Z,28.20
2024-02-21T00:57:42.414Z,26.80
2024-02-21T01:00:29.339Z,24.80
2024-02-21T01:06:03.291Z,24.80
2024-02-21T01:11:37.397Z,19.60
2024-02-21T01:14:24.250Z,20.60
2024-02-21T01:17:11.008Z,17.30
2024-02-21T01:19:58.042Z,16.60
2024-02-21T01:22:44.897Z,15.40
2024-02-21T01:25:31.821Z,17.00
2024-02-21T01:28:20.651Z,18.50
2024-02-21T01:31:08.620Z,25.80
2024-02-21T01:33:55.751Z,22.90
2024-02-21T01:36:43.194Z,17.00
2024-02-21T01:39:30.120Z,15.00
2024-02-21T01:42:16.863Z,13.40
2024-02-21T01:47:51.858Z,9.40
2024-02-21T01:50:38.950Z,11.00
2024-02-21T01:53:36.668Z,9.70
2024-02-21T01:56:23.884Z,9.40
2024-02-21T01:59:13.107Z,9.70
2024-02-21T02:01:59.987Z,10.20
2024-02-21T02:04:47.517Z,10.70
2024-02-21T02:07:34.971Z,10.90
2024-02-21T02:10:22.546Z,12.10
2024-02-21T02:13:10.174Z,11.20
2024-02-21T02:15:56.960Z,11.40
2024-02-21T02:21:39.394Z,14.40
2024-02-21T02:24:29.633Z,21.40
2024-02-21T02:27:16.737Z,14.80
2024-02-21T02:32:51.338Z,13.70
2024-02-21T02:38:24.936Z,14.10
2024-02-21T02:41:11.747Z,15.70
2024-02-21T02:43:58.426Z,18.20
2024-02-21T02:46:45.537Z,21.80
2024-02-21T02:49:32.850Z,25.40
2024-02-21T02:52:19.751Z,19.40
2024-02-21T02:57:54.184Z,18.70
2024-02-21T03:00:41.086Z,27.00
2024-02-21T03:06:16.083Z,34.10
2024-02-21T03:09:03.337Z,31.50
2024-02-21T03:11:50.493Z,38.80
2024-02-21T03:14:37.265Z,30.70
2024-02-21T03:20:12.803Z,23.10
2024-02-21T03:23:00.781Z,23.80
2024-02-21T03:25:47.439Z,19.60
2024-02-21T03:28:37.182Z,16.40
2024-02-21T03:31:24.305Z,11.30
2024-02-21T03:34:18.583Z,16.00
2024-02-21T03:37:07.220Z,20.90
2024-02-21T03:39:54.319Z,24.30
2024-02-21T03:42:41.051Z,21.60
2024-02-21T03:45:28.006Z,24.40
2024-02-21T03:48:14.884Z,25.40
2024-02-21T03:53:48.354Z,24.20
2024-02-21T03:56:39.162Z,25.60
2024-02-21T03:59:25.952Z,27.60
2024-02-21T04:02:13.006Z,26.90
2024-02-21T04:05:00.968Z,28.20
2024-02-21T04:07:48.352Z,26.40
2024-02-21T04:10:35.254Z,27.90
2024-02-21T04:13:23.384Z,19.60
2024-02-21T04:16:10.166Z,16.90
2024-02-21T04:18:57.109Z,15.50
2024-02-21T04:21:44.004Z,15.80
2024-02-21T04:24:32.208Z,27.00
2024-02-21T04:27:19.049Z,26.20
2024-02-21T04:32:53.513Z,24.80
2024-02-21T04:35:41.032Z,26.70
2024-02-21T04:38:28.298Z,22.20
2024-02-21T04:41:15.381Z,23.10
2024-02-21T04:44:02.903Z,26.10
2024-02-21T04:46:49.896Z,23.60
2024-02-21T04:49:37.045Z,21.90
2024-02-21T04:52:23.862Z,21.00
2024-02-21T04:57:57.566Z,19.00
2024-02-21T05:00:44.518Z,22.10
2024-02-21T05:03:32.104Z,24.40
2024-02-21T05:06:18.982Z,21.90
2024-02-21T05:11:53.243Z,27.20
2024-02-21T05:14:40.134Z,34.20
2024-02-21T05:17:28.073Z,42.30
2024-02-21T05:20:15.117Z,38.00
2024-02-21T05:23:02.291Z,37.50
2024-02-21T05:25:49.610Z,31.80
2024-02-21T05:28:36.625Z,56.10
2024-02-21T05:31:23.956Z,43.60
2024-02-21T05:36:58.999Z,35.30
2024-02-21T05:39:45.914Z,36.30
2024-02-21T05:42:33.465Z,81.30
2024-02-21T05:45:22.673Z,154.20
2024-02-21T05:51:34.693Z,40.40
2024-02-21T05:54:33.055Z,56.90
2024-02-21T06:00:52.274Z,38.00
2024-02-21T06:03:39.250Z,45.20
2024-02-21T06:06:27.512Z,33.40
2024-02-21T06:13:07.190Z,46.30
2024-02-21T06:15:54.575Z,46.30
2024-02-21T06:19:09.879Z,37.10
2024-02-21T06:22:09.159Z,36.70
2024-02-21T06:24:56.562Z,37.20
2024-02-21T06:28:11.668Z,41.10
2024-02-21T06:30:58.476Z,41.60
2024-02-21T06:36:32.847Z,46.80
2024-02-21T06:39:20.156Z,47.10
2024-02-21T06:42:06.881Z,34.20
2024-02-21T06:44:54.480Z,25.10
2024-02-21T06:47:45.853Z,17.50
2024-02-21T06:50:47.764Z,14.40
2024-02-21T06:53:39.478Z,18.30
2024-02-21T06:56:30.662Z,26.60
2024-02-21T06:59:17.954Z,21.00
2024-02-21T07:02:05.057Z,12.10
2024-02-21T07:04:52.273Z,14.10
2024-02-21T07:07:41.659Z,12.30
2024-02-21T07:10:30.636Z,12.20
2024-02-21T07:13:18.996Z,6.40
2024-02-21T07:16:07.457Z,6.00
2024-02-21T07:27:54.241Z,5.90
2024-02-21T07:32:13.352Z,9.70
2024-02-21T07:35:03.757Z,6.60
2024-02-21T07:37:51.140Z,6.50
2024-02-21T07:40:58.180Z,6.40
2024-02-21T07:43:49.893Z,18.80
2024-02-21T07:46:37.466Z,8.60
2024-02-21T07:49:28.860Z,5.30
2024-02-21T07:52:24.951Z,6.00
2024-02-21T07:55:42.345Z,14.70
2024-02-21T07:59:06.928Z,7.60
2024-02-21T08:02:18.966Z,13.10
2024-02-21T08:05:06.729Z,10.10
2024-02-21T08:07:56.594Z,6.80
2024-02-21T08:15:20.405Z,6.40
2024-02-21T08:15:43.369Z,9.00
2024-02-21T08:18:30.460Z,16.70
2024-02-21T08:21:18.767Z,16.70
2024-02-21T08:24:06.417Z,16.50
2024-02-21T08:26:54.854Z,13.70
2024-02-21T08:29:43.214Z,20.90
2024-02-21T08:33:26.117Z,16.70
2024-02-21T08:36:21.348Z,7.50
2024-02-21T08:39:10.957Z,14.50
2024-02-21T08:42:00.856Z,12.00
2024-02-21T08:47:34.592Z,9.60
2024-02-21T08:51:45.529Z,7.50
2024-02-21T08:54:36.149Z,14.70
2024-02-21T08:59:08.833Z,12.90
2024-02-21T09:02:08.535Z,8.90
2024-02-21T09:04:55.829Z,10.50
2024-02-21T09:07:42.733Z,13.60
2024-02-21T09:10:29.908Z,13.80
2024-02-21T09:13:17.135Z,15.70
2024-02-21T09:16:04.731Z,14.30
2024-02-21T09:18:51.524Z,22.10
2024-02-21T09:21:39.431Z,25.80
2024-02-21T09:24:27.000Z,18.30
2024-02-21T09:27:14.971Z,16.80
2024-02-21T09:30:09.279Z,12.10
2024-02-21T09:32:56.963Z,14.40
2024-02-21T09:35:44.675Z,12.10
2024-02-21T09:38:31.899Z,9.40
2024-02-21T09:41:30.882Z,10.60
2024-02-21T09:44:44.781Z,7.00
2024-02-21T09:48:11.265Z,7.00
2024-02-21T09:51:16.537Z,7.50
2024-02-21T09:54:15.220Z,11.70
2024-02-21T09:57:07.567Z,13.60
2024-02-21T09:59:57.124Z,10.60
2024-02-21T10:02:44.425Z,12.50
2024-02-21T10:08:18.969Z,11.00
2024-02-21T10:11:10.558Z,7.20
2024-02-21T10:14:08.323Z,12.40
2024-02-21T10:17:00.436Z,30.60
2024-02-21T10:19:48.916Z,9.00
2024-02-21T10:22:37.720Z,6.40
2024-02-21T10:25:46.917Z,6.90
2024-02-21T10:28:34.246Z,11.40
2024-02-21T10:31:42.663Z,9.60
2024-02-21T10:34:30.636Z,6.40
2024-02-21T10:37:17.485Z,6.20
2024-02-21T10:40:06.642Z,5.50
2024-02-21T10:43:04.955Z,5.90
2024-02-21T10:45:54.513Z,5.30
2024-02-21T10:48:46.187Z,5.70
2024-02-21T10:51:38.821Z,5.30
2024-02-21T10:55:30.072Z,5.50
2024-02-21T10:59:45.011Z,5.30
2024-02-21T11:02:33.021Z,5.30
2024-02-21T11:05:51.566Z,5.90
2024-02-21T11:09:10.933Z,5.90
2024-02-21T11:12:00.120Z,7.20
2024-02-21T11:15:13.194Z,7.20
2024-02-21T11:18:01.770Z,9.10
2024-02-21T11:20:54.758Z,6.10
2024-02-21T11:23:42.023Z,6.80
2024-02-21T11:26:30.174Z,6.20
2024-02-21T11:29:26.403Z,6.00
2024-02-21T11:32:22.346Z,9.00
2024-02-21T11:38:44.102Z,5.80
2024-02-21T11:41:31.001Z,5.70
2024-02-21T11:44:18.310Z,7.00
2024-02-21T11:47:11.146Z,5.50
2024-02-21T11:49:58.606Z,6.10
2024-02-21T11:53:00.669Z,5.50
2024-02-21T11:55:53.541Z,6.40
2024-02-21T11:58:40.262Z,5.00
2024-02-21T12:01:27.630Z,19.60
2024-02-21T12:04:14.510Z,10.00
2024-02-21T12:07:01.756Z,12.60
2024-02-21T12:09:49.018Z,8.20
2024-02-21T12:12:37.648Z,7.00
2024-02-21T12:15:24.901Z,10.60
2024-02-21T12:18:12.251Z,5.60
2024-02-21T12:21:02.872Z,9.60
2024-02-21T12:23:50.090Z,10.30
2024-02-21T12:26:38.680Z,6.00
2024-02-21T12:29:25.994Z,7.20
2024-02-21T12:32:13.972Z,7.80
2024-02-21T12:35:01.477Z,5.70
2024-02-21T12:37:49.080Z,6.70
2024-02-21T12:40:36.707Z,6.00
2024-02-21T12:43:24.116Z,6.40
2024-02-21T12:46:11.261Z,6.70
2024-02-21T12:48:58.445Z,7.60
2024-02-21T12:51:49.685Z,6.40
2024-02-21T12:54:37.176Z,7.10
2024-02-21T12:57:24.166Z,6.30
2024-02-21T13:00:13.413Z,6.50
2024-02-21T13:03:00.545Z,8.20
2024-02-21T13:05:49.548Z,6.70
2024-02-21T13:08:37.169Z,6.30
2024-02-21T13:11:28.198Z,6.80
2024-02-21T13:14:49.693Z,7.80
2024-02-21T13:17:40.868Z,5.70
2024-02-21T13:20:29.960Z,5.90
2024-02-21T13:23:22.608Z,6.10
2024-02-21T13:26:11.391Z,5.80
2024-02-21T13:28:58.490Z,7.20
2024-02-21T13:31:49.992Z,8.00
2024-02-21T13:34:36.665Z,7.20
2024-02-21T13:37:23.978Z,6.60
2024-02-21T13:40:11.702Z,5.70
2024-02-21T13:42:59.502Z,6.40
2024-02-21T13:46:00.496Z,6.40
2024-02-21T13:48:47.944Z,6.00
2024-02-21T13:51:39.013Z,7.60
2024-02-21T13:54:26.075Z,5.60
2024-02-21T13:57:13.558Z,8.30
2024-02-21T14:00:01.078Z,6.30
2024-02-21T14:02:50.762Z,9.00
2024-02-21T14:05:43.234Z,5.70
2024-02-21T14:08:35.591Z,5.70
2024-02-21T14:11:24.593Z,6.10
2024-02-21T14:14:13.438Z,5.30
2024-02-21T14:17:01.819Z,5.90
2024-02-21T14:19:49.214Z,5.80
2024-02-21T14:22:38.886Z,6.20
2024-02-21T14:25:26.026Z,6.60
2024-02-21T14:28:12.827Z,6.30
2024-02-21T14:31:01.553Z,7.00
2024-02-21T14:33:49.581Z,7.80
2024-02-21T14:36:36.654Z,7.10
2024-02-21T14:39:24.474Z,5.40
2024-02-21T14:42:11.630Z,11.80
2024-02-21T14:45:07.359Z,10.90
2024-02-21T14:47:56.717Z,6.60
2024-02-21T14:50:44.047Z,18.20
2024-02-21T14:53:33.380Z,40.30
2024-02-21T14:56:21.679Z,39.10
2024-02-21T14:59:11.705Z,30.50
2024-02-21T15:02:05.809Z,36.30
2024-02-21T15:04:52.980Z,24.40
2024-02-21T15:07:39.761Z,14.80
2024-02-21T15:10:29.303Z,18.70
2024-02-21T15:16:09.531Z,79.20
2024-02-21T15:18:56.431Z,57.50
2024-02-21T15:24:30.700Z,12.90
2024-02-21T15:30:07.064Z,12.30
2024-02-21T15:32:56.947Z,15.70
2024-02-21T15:35:44.003Z,11.80
2024-02-21T15:38:31.122Z,9.00
2024-02-21T15:41:18.402Z,7.40
2024-02-21T15:44:06.129Z,6.70
2024-02-21T15:46:54.936Z,6.10
2024-02-21T15:49:43.105Z,6.60
2024-02-21T15:52:30.270Z,6.40
2024-02-21T15:55:18.732Z,6.20
2024-02-21T15:58:06.031Z,7.60
2024-02-21T16:00:54.620Z,6.70
2024-02-21T16:03:42.154Z,7.60
2024-02-21T16:06:31.898Z,8.30
2024-02-21T16:09:19.314Z,8.80
2024-02-21T16:12:06.921Z,10.20
2024-02-21T16:14:54.505Z,19.90
2024-02-21T16:17:41.957Z,8.90
2024-02-21T16:20:29.440Z,9.50
2024-02-21T16:23:17.289Z,9.40
2024-02-21T16:26:05.998Z,13.80
2024-02-21T16:28:52.783Z,17.20
2024-02-21T16:31:51.656Z,42.40
2024-02-21T16:34:38.878Z,21.40
2024-02-21T16:37:29.230Z,16.40
2024-02-21T16:40:19.882Z,16.90
2024-02-21T16:43:14.278Z,17.10
2024-02-21T16:46:01.423Z,28.20
2024-02-21T16:48:48.493Z,38.20
2024-02-21T16:54:23.558Z,16.10
2024-02-21T16:57:10.855Z,20.30
2024-02-21T17:02:52.097Z,13.00
2024-02-21T17:05:51.984Z,8.90
2024-02-21T17:08:42.902Z,8.90
2024-02-21T17:11:31.659Z,8.90
2024-02-21T17:14:18.698Z,8.80
2024-02-21T17:17:06.624Z,9.80
2024-02-21T17:23:34.367Z,12.50
2024-02-21T17:26:56.793Z,13.20
2024-02-21T17:30:04.619Z,13.10
2024-02-21T17:32:58.014Z,11.50
2024-02-21T17:35:55.358Z,9.70
2024-02-21T17:38:48.077Z,8.30
2024-02-21T17:41:54.593Z,7.60
2024-02-21T17:44:44.072Z,6.80
2024-02-21T17:47:44.538Z,9.60
2024-02-21T17:50:56.941Z,11.00
2024-02-21T17:53:43.733Z,16.20
2024-02-21T17:56:30.633Z,12.80
2024-02-21T17:59:19.464Z,12.20
2024-02-21T18:02:07.128Z,15.60
2024-02-21T18:04:54.419Z,21.90
2024-02-21T18:07:41.809Z,48.10
2024-02-21T18:10:32.654Z,44.60
2024-02-21T18:13:21.366Z,18.90
2024-02-21T18:16:10.072Z,15.30
2024-02-21T18:18:57.134Z,13.60
2024-02-21T18:21:44.257Z,17.60
2024-02-21T18:27:20.771Z,20.60
2024-02-21T18:30:08.359Z,15.20
2024-02-21T18:32:55.387Z,27.00
2024-02-21T18:38:40.194Z,27.10
2024-02-21T18:41:27.926Z,70.90
2024-02-21T18:44:15.126Z,106.00
2024-02-21T18:47:02.135Z,152.90
2024-02-21T18:49:50.994Z,115.30
2024-02-21T18:52:38.372Z,111.10
2024-02-21T18:58:15.838Z,147.90
2024-02-21T19:01:02.634Z,134.60
2024-02-21T19:03:49.522Z,125.40
2024-02-21T19:06:36.810Z,130.10
2024-02-21T19:09:24.710Z,131.40
2024-02-21T19:12:13.807Z,157.20
2024-02-21T19:15:00.871Z,144.10
2024-02-21T19:17:48.091Z,121.80
2024-02-21T19:20:35.418Z,98.60
2024-02-21T19:23:22.061Z,80.60
2024-02-21T19:26:10.282Z,75.70
2024-02-21T19:28:57.334Z,63.50
2024-02-21T19:34:33.034Z,76.60
2024-02-21T19:37:20.136Z,66.30
2024-02-21T19:40:11.266Z,70.00
2024-02-21T19:42:59.365Z,76.20
2024-02-21T19:45:49.037Z,84.70
2024-02-21T19:48:36.078Z,89.20
2024-02-21T19:54:23.746Z,135.00
2024-02-21T19:57:14.128Z,121.40
2024-02-21T20:00:01.122Z,136.00
2024-02-21T20:02:49.832Z,98.30
2024-02-21T20:05:38.396Z,65.80
2024-02-21T20:08:25.801Z,39.30
2024-02-21T20:11:12.732Z,31.00
